createdAt,value
2022-10-11T00:02:00.760Z,3.38
2022-10-11T00:04:28.242Z,3.25
2022-10-11T00:06:55.710Z,3.25
2022-10-11T00:09:23.174Z,3.25
2022-10-11T00:11:54.778Z,3.63
2022-10-11T00:14:22.170Z,3.45
2022-10-11T00:16:50.803Z,2.92
2022-10-11T00:19:18.314Z,3.53
2022-10-11T00:21:45.746Z,2.75
2022-10-11T00:24:13.218Z,3.50
2022-10-11T00:26:45.754Z,2.75
2022-10-11T00:29:15.718Z,3.00
2022-10-11T00:31:43.167Z,3.30
2022-10-11T00:34:10.611Z,3.80
2022-10-11T00:36:38.110Z,3.60
2022-10-11T00:39:05.526Z,3.45
2022-10-11T00:41:33.076Z,3.35
2022-10-11T00:44:13.561Z,2.90
2022-10-11T00:46:43.926Z,3.03
2022-10-11T00:49:17.752Z,3.05
2022-10-11T00:51:48.566Z,3.60
2022-10-11T00:54:17.240Z,3.25
2022-10-11T00:56:45.678Z,2.72
2022-10-11T00:59:14.654Z,2.85
2022-10-11T01:01:43.619Z,3.30
2022-10-11T01:04:11.105Z,2.95
2022-10-11T01:06:38.558Z,4.00
2022-10-11T01:09:05.959Z,2.95
2022-10-11T01:11:33.368Z,3.03
2022-10-11T01:14:29.856Z,3.13
2022-10-11T01:17:01.277Z,2.70
2022-10-11T01:19:45.278Z,3.10
2022-10-11T01:22:21.717Z,3.55
2022-10-11T01:25:15.357Z,3.40
2022-10-11T01:28:09.820Z,3.37
2022-10-11T01:33:26.100Z,2.92
2022-10-11T01:35:57.750Z,3.00
2022-10-11T01:38:33.266Z,3.30
2022-10-11T01:41:02.968Z,3.15
2022-10-11T01:43:30.390Z,2.65
2022-10-11T01:45:59.405Z,3.13
2022-10-11T01:48:26.884Z,3.33
2022-10-11T01:50:55.184Z,2.70
2022-10-11T01:53:44.494Z,2.83
2022-10-11T01:56:21.278Z,2.67
2022-10-11T01:58:55.334Z,2.78
2022-10-11T02:01:27.236Z,2.78
2022-10-11T02:03:58.248Z,3.15
2022-10-11T02:06:28.705Z,2.55
2022-10-11T02:09:02.273Z,2.33
2022-10-11T02:11:33.300Z,2.85
2022-10-11T02:14:03.360Z,2.22
2022-10-11T02:16:39.178Z,2.15
2022-10-11T02:19:06.898Z,2.38
2022-10-11T02:21:34.803Z,2.70
2022-10-11T02:24:03.852Z,2.90
2022-10-11T02:26:31.882Z,2.70
2022-10-11T02:28:59.958Z,2.30
2022-10-11T02:31:27.615Z,2.38
2022-10-11T02:33:59.410Z,2.80
2022-10-11T02:36:30.402Z,2.83
2022-10-11T02:38:59.590Z,2.53
2022-10-11T02:41:30.482Z,2.75
2022-10-11T02:44:00.256Z,2.72
2022-10-11T02:46:27.807Z,2.22
2022-10-11T02:48:57.274Z,2.17
2022-10-11T02:51:25.262Z,2.60
2022-10-11T02:53:52.764Z,2.38
2022-10-11T02:56:20.349Z,2.45
2022-10-11T02:58:47.892Z,2.38
2022-10-11T03:01:15.371Z,2.42
2022-10-11T03:03:42.951Z,2.10
2022-10-11T03:06:12.424Z,2.40
2022-10-11T03:08:39.884Z,2.50
2022-10-11T03:11:07.645Z,2.58
2022-10-11T03:13:35.195Z,2.30
2022-10-11T03:16:03.810Z,2.05
2022-10-11T03:18:31.618Z,2.83
2022-10-11T03:20:59.178Z,2.13
2022-10-11T03:23:28.138Z,2.83
2022-10-11T03:25:55.767Z,1.85
2022-10-11T03:28:23.260Z,2.22
2022-10-11T03:30:51.153Z,2.10
2022-10-11T03:33:18.672Z,2.10
2022-10-11T03:35:46.991Z,2.22
2022-10-11T03:38:15.165Z,2.25
2022-10-11T03:40:44.213Z,2.30
2022-10-11T03:43:11.814Z,2.25
2022-10-11T03:45:39.272Z,2.13
2022-10-11T03:48:07.065Z,2.25
2022-10-11T03:50:34.555Z,2.13
2022-10-11T03:53:01.964Z,2.42
2022-10-11T03:55:29.478Z,2.10
2022-10-11T03:57:58.338Z,2.25
2022-10-11T04:00:25.881Z,2.25
2022-10-11T04:02:53.440Z,2.33
2022-10-11T04:05:20.979Z,2.17
2022-10-11T04:07:48.513Z,1.88
2022-10-11T04:10:16.155Z,2.17
2022-10-11T04:12:43.671Z,2.03
2022-10-11T04:15:12.721Z,2.10
2022-10-11T04:17:40.269Z,2.45
2022-10-11T04:20:09.319Z,2.45
2022-10-11T04:22:36.949Z,2.60
2022-10-11T04:25:05.132Z,1.90
2022-10-11T04:27:32.618Z,2.58
2022-10-11T04:30:00.117Z,1.67
2022-10-11T04:32:29.168Z,2.15
2022-10-11T04:34:56.899Z,2.05
2022-10-11T04:37:24.471Z,1.85
2022-10-11T04:39:52.080Z,1.73
2022-10-11T04:42:19.634Z,1.90
2022-10-11T04:44:47.172Z,1.83
2022-10-11T04:47:14.732Z,1.95
2022-10-11T04:49:43.683Z,2.53
2022-10-11T04:52:11.254Z,2.03
2022-10-11T04:54:38.771Z,1.70
2022-10-11T04:57:06.339Z,2.25
2022-10-11T04:59:33.932Z,1.90
2022-10-11T05:02:01.543Z,2.15
2022-10-11T05:04:29.262Z,2.03
2022-10-11T05:06:58.243Z,2.03
2022-10-11T05:09:25.810Z,2.10
2022-10-11T05:11:53.303Z,1.77
2022-10-11T05:14:20.874Z,1.83
2022-10-11T05:16:48.415Z,2.33
2022-10-11T05:19:15.861Z,2.15
2022-10-11T05:21:43.394Z,1.40
2022-10-11T05:24:12.491Z,2.08
2022-10-11T05:26:40.053Z,1.92
2022-10-11T05:29:07.601Z,2.03
2022-10-11T05:31:35.188Z,1.77
2022-10-11T05:34:02.750Z,2.03
2022-10-11T05:36:30.239Z,2.15
2022-10-11T05:38:57.851Z,2.20
2022-10-11T05:41:26.846Z,1.85
2022-10-11T05:43:54.453Z,1.73
2022-10-11T05:46:22.031Z,1.60
2022-10-11T05:48:49.636Z,1.95
2022-10-11T05:51:17.191Z,1.85
2022-10-11T05:53:44.704Z,1.90
2022-10-11T05:56:19.782Z,1.55
2022-10-11T05:58:48.885Z,1.75
2022-10-11T06:01:18.290Z,1.98
2022-10-11T06:03:45.866Z,1.90
2022-10-11T06:06:13.393Z,1.83
2022-10-11T06:08:40.954Z,1.75
2022-10-11T06:11:13.110Z,1.45
2022-10-11T06:13:40.825Z,1.55
2022-10-11T06:16:09.870Z,1.83
2022-10-11T06:18:37.476Z,1.77
2022-10-11T06:21:05.403Z,2.20
2022-10-11T06:23:32.868Z,1.90
2022-10-11T06:26:00.860Z,1.70
2022-10-11T06:28:29.158Z,2.25
2022-10-11T06:30:56.775Z,1.73
2022-10-11T06:33:25.884Z,2.00
2022-10-11T06:35:58.212Z,1.67
2022-10-11T06:38:25.839Z,2.05
2022-10-11T06:40:53.474Z,1.95
2022-10-11T06:43:21.060Z,2.25
2022-10-11T06:45:48.607Z,1.60
2022-10-11T06:48:16.139Z,1.92
2022-10-11T06:50:59.552Z,1.83
2022-10-11T06:53:27.780Z,2.40
2022-10-11T06:56:01.556Z,2.08
2022-10-11T06:58:29.680Z,2.22
2022-10-11T07:01:00.703Z,1.95
2022-10-11T07:03:28.646Z,2.22
2022-10-11T07:06:02.792Z,1.92
2022-10-11T07:08:30.945Z,1.95
2022-10-11T07:11:01.527Z,1.75
2022-10-11T07:13:29.084Z,2.45
2022-10-11T07:15:56.756Z,2.83
2022-10-11T07:18:24.333Z,2.70
2022-10-11T07:20:51.880Z,2.78
2022-10-11T07:23:20.996Z,1.95
2022-10-11T07:25:48.605Z,1.70
2022-10-11T07:28:16.174Z,2.35
2022-10-11T07:30:43.896Z,3.08
2022-10-11T07:33:11.440Z,2.08
2022-10-11T07:35:38.965Z,1.85
2022-10-11T07:38:06.673Z,2.10
2022-10-11T07:40:43.704Z,2.88
2022-10-11T07:43:11.348Z,2.38
2022-10-11T07:45:38.925Z,2.53
2022-10-11T07:48:06.683Z,2.75
2022-10-11T07:50:34.352Z,2.10
2022-10-11T07:53:01.836Z,2.10
2022-10-11T07:55:29.472Z,2.40
2022-10-11T07:57:58.488Z,3.00
2022-10-11T08:00:26.069Z,2.38
2022-10-11T08:02:53.601Z,2.67
2022-10-11T08:05:21.234Z,1.95
2022-10-11T08:07:48.900Z,2.30
2022-10-11T08:10:16.388Z,2.00
2022-10-11T08:12:43.936Z,2.10
2022-10-11T08:15:13.229Z,2.10
2022-10-11T08:17:40.817Z,1.98
2022-10-11T08:20:09.336Z,2.10
2022-10-11T08:22:36.963Z,2.13
2022-10-11T08:25:05.134Z,2.08
2022-10-11T08:27:32.764Z,1.55
2022-10-11T08:30:00.350Z,2.20
2022-10-11T08:32:29.513Z,2.10
2022-10-11T08:34:57.495Z,2.25
2022-10-11T08:37:25.007Z,2.55
2022-10-11T08:39:52.590Z,1.90
2022-10-11T08:42:25.465Z,2.05
2022-10-11T08:45:12.028Z,2.15
2022-10-11T08:47:43.484Z,1.58
2022-10-11T08:50:16.016Z,2.33
2022-10-11T08:52:45.420Z,2.30
2022-10-11T08:55:18.620Z,2.00
2022-10-11T08:57:48.847Z,1.98
2022-10-11T09:00:17.956Z,2.40
2022-10-11T09:03:07.403Z,2.03
2022-10-11T09:05:49.666Z,2.00
2022-10-11T09:08:20.945Z,1.95
2022-10-11T09:10:57.739Z,2.13
2022-10-11T09:13:39.891Z,2.08
2022-10-11T09:16:10.801Z,1.95
2022-10-11T09:18:48.251Z,2.50
2022-10-11T09:21:20.791Z,2.05
2022-10-11T09:24:05.293Z,2.13
2022-10-11T09:26:35.176Z,1.85
2022-10-11T09:29:06.569Z,1.90
2022-10-11T09:31:34.238Z,1.95
2022-10-11T09:34:10.250Z,2.03
2022-10-11T09:36:41.369Z,1.63
2022-10-11T09:39:16.287Z,2.35
2022-10-11T09:41:46.867Z,1.65
2022-10-11T09:44:17.474Z,1.90
2022-10-11T09:46:45.283Z,2.15
2022-10-11T09:49:16.565Z,2.13
2022-10-11T09:51:45.340Z,2.58
2022-10-11T09:54:12.904Z,2.25
2022-10-11T09:56:41.992Z,1.73
2022-10-11T09:59:19.225Z,1.95
2022-10-11T10:01:46.825Z,1.85
2022-10-11T10:04:16.544Z,1.92
2022-10-11T10:06:44.243Z,2.05
2022-10-11T10:09:25.623Z,1.85
2022-10-11T10:11:53.383Z,1.75
2022-10-11T10:14:22.971Z,2.13
2022-10-11T10:16:58.522Z,2.33
2022-10-11T10:19:27.579Z,1.77
2022-10-11T10:21:55.317Z,2.60
2022-10-11T10:24:30.801Z,2.90
2022-10-11T10:27:15.148Z,1.77
2022-10-11T10:29:42.762Z,2.58
2022-10-11T10:32:14.689Z,2.47
2022-10-11T10:34:54.407Z,2.25
2022-10-11T10:37:25.623Z,1.70
2022-10-11T10:39:55.234Z,2.35
2022-10-11T10:42:22.790Z,2.65
2022-10-11T10:44:52.882Z,1.90
2022-10-11T10:47:26.491Z,1.80
2022-10-11T10:50:00.800Z,2.33
2022-10-11T10:52:51.341Z,2.20
2022-10-11T10:55:23.968Z,2.05
2022-10-11T10:58:01.746Z,2.15
2022-10-11T11:00:30.568Z,2.15
2022-10-11T11:03:00.803Z,2.10
2022-10-11T11:05:37.905Z,2.33
2022-10-11T11:08:09.268Z,1.70
2022-10-11T11:10:39.300Z,2.17
2022-10-11T11:13:18.855Z,2.50
2022-10-11T11:15:50.793Z,1.88
2022-10-11T11:18:26.523Z,2.17
2022-10-11T11:21:05.738Z,1.77
2022-10-11T11:23:37.531Z,1.60
2022-10-11T11:26:09.016Z,1.98
2022-10-11T11:28:53.958Z,2.00
2022-10-11T11:31:33.119Z,1.73
2022-10-11T11:34:04.643Z,1.67
2022-10-11T11:36:37.843Z,3.05
2022-10-11T11:39:05.688Z,1.83
2022-10-11T11:41:36.507Z,1.40
2022-10-11T11:44:06.236Z,1.48
2022-10-11T11:46:36.087Z,2.20
2022-10-11T11:49:08.614Z,1.95
2022-10-11T11:51:43.325Z,1.80
2022-10-11T11:54:31.044Z,1.70
2022-10-11T11:57:01.501Z,1.50
2022-10-11T11:59:34.088Z,1.50
2022-10-11T12:02:07.648Z,1.98
2022-10-11T12:04:36.496Z,1.52
2022-10-11T12:07:16.759Z,1.67
2022-10-11T12:09:45.966Z,1.35
2022-10-11T12:12:27.594Z,1.60
2022-10-11T12:15:03.445Z,1.30
2022-10-11T12:17:31.024Z,2.28
2022-10-11T12:20:04.450Z,1.73
2022-10-11T12:22:57.818Z,1.70
2022-10-11T12:25:37.126Z,1.80
2022-10-11T12:28:37.806Z,1.73
2022-10-11T12:31:06.281Z,1.65
2022-10-11T12:33:49.782Z,1.52
2022-10-11T12:36:38.828Z,1.70
2022-10-11T12:39:42.026Z,2.25
2022-10-11T12:42:20.218Z,1.83
2022-10-11T12:45:20.947Z,1.65
2022-10-11T12:47:48.760Z,1.63
2022-10-11T12:50:17.887Z,1.60
2022-10-11T12:52:53.537Z,1.80
2022-10-11T12:55:38.093Z,1.98
2022-10-11T12:58:28.652Z,1.60
2022-10-11T13:01:18.635Z,1.60
2022-10-11T13:03:48.794Z,2.05
2022-10-11T13:06:17.986Z,1.77
2022-10-11T13:08:49.404Z,1.50
2022-10-11T13:11:23.089Z,1.52
2022-10-11T13:13:53.551Z,1.60
2022-10-11T13:16:22.508Z,1.90
2022-10-11T13:18:53.546Z,1.65
2022-10-11T13:21:27.217Z,1.48
2022-10-11T13:23:55.106Z,1.60
2022-10-11T13:26:24.193Z,1.60
2022-10-11T13:28:51.766Z,1.63
2022-10-11T13:31:19.449Z,1.55
2022-10-11T13:33:47.184Z,1.60
2022-10-11T13:36:16.218Z,2.03
2022-10-11T13:38:49.948Z,1.73
2022-10-11T13:41:17.589Z,1.80
2022-10-11T13:43:46.649Z,1.67
2022-10-11T13:46:21.307Z,2.13
2022-10-11T13:48:58.298Z,1.83
2022-10-11T13:51:33.305Z,1.65
2022-10-11T13:54:02.664Z,1.70
2022-10-11T13:56:31.224Z,1.80
2022-10-11T13:59:01.045Z,2.25
2022-10-11T14:01:29.133Z,1.92
2022-10-11T14:03:59.373Z,1.83
2022-10-11T14:06:40.150Z,1.75
2022-10-11T14:09:13.658Z,1.38
2022-10-11T14:11:41.298Z,1.70
2022-10-11T14:14:38.445Z,1.33
2022-10-11T14:17:10.710Z,1.52
2022-10-11T14:19:38.243Z,1.60
2022-10-11T14:22:05.876Z,1.77
2022-10-11T14:24:33.480Z,1.83
2022-10-11T14:27:00.985Z,1.40
2022-10-11T14:29:29.323Z,1.52
2022-10-11T14:32:02.065Z,1.92
2022-10-11T14:34:29.708Z,1.67
2022-10-11T14:36:57.337Z,1.80
2022-10-11T14:39:26.255Z,2.47
2022-10-11T14:41:53.894Z,1.23
2022-10-11T14:44:21.589Z,1.60
2022-10-11T14:46:50.098Z,1.88
2022-10-11T14:49:20.215Z,1.83
2022-10-11T14:51:48.600Z,1.92
2022-10-11T14:54:16.507Z,1.88
2022-10-11T14:56:44.079Z,1.73
2022-10-11T14:59:13.252Z,1.80
2022-10-11T15:01:40.971Z,1.98
2022-10-11T15:04:08.711Z,1.50
2022-10-11T15:06:39.592Z,2.05
2022-10-11T15:09:07.362Z,2.25
2022-10-11T15:11:34.933Z,1.75
2022-10-11T15:14:04.009Z,1.92
2022-10-11T15:16:31.533Z,1.42
2022-10-11T15:18:59.100Z,1.63
2022-10-11T15:21:27.283Z,1.42
2022-10-11T15:23:56.478Z,1.58
2022-10-11T15:26:25.057Z,1.48
2022-10-11T15:28:53.203Z,1.83
2022-10-11T15:31:20.937Z,1.90
2022-10-11T15:33:48.447Z,1.50
2022-10-11T15:36:17.920Z,1.75
2022-10-11T15:38:45.506Z,1.67
2022-10-11T15:41:15.257Z,1.77
2022-10-11T15:43:43.409Z,1.58
2022-10-11T15:46:11.683Z,1.17
2022-10-11T15:48:39.133Z,1.48
2022-10-11T15:51:06.700Z,1.23
2022-10-11T15:53:34.304Z,1.30
2022-10-11T15:56:03.554Z,1.23
2022-10-11T15:58:34.681Z,1.30
2022-10-11T16:01:05.477Z,1.63
2022-10-11T16:03:33.390Z,1.30
2022-10-11T16:06:04.996Z,1.40
2022-10-11T16:08:33.357Z,1.40
2022-10-11T16:11:00.993Z,1.42
2022-10-11T16:13:28.513Z,1.55
2022-10-11T16:15:57.570Z,1.33
2022-10-11T16:18:25.159Z,2.22
2022-10-11T16:20:52.755Z,1.80
2022-10-11T16:23:20.598Z,1.60
2022-10-11T16:25:56.853Z,1.58
2022-10-11T16:28:24.625Z,1.98
2022-10-11T16:30:52.269Z,1.17
2022-10-11T16:33:21.299Z,1.50
2022-10-11T16:35:48.857Z,1.70
2022-10-11T16:38:16.408Z,2.20
2022-10-11T16:40:43.967Z,1.70
2022-10-11T16:43:11.679Z,1.67
2022-10-11T16:45:39.183Z,1.55
2022-10-11T16:48:06.796Z,2.13
2022-10-11T16:50:39.473Z,1.50
2022-10-11T16:53:07.497Z,1.50
2022-10-11T16:55:35.071Z,1.80
2022-10-11T16:58:02.682Z,2.03
2022-10-11T17:00:30.504Z,1.70
2022-10-11T17:02:58.206Z,1.95
2022-10-11T17:05:28.293Z,2.30
2022-10-11T17:07:57.336Z,2.00
2022-10-11T17:10:24.918Z,1.70
2022-10-11T17:12:52.512Z,2.10
2022-10-11T17:15:20.083Z,2.63
2022-10-11T17:17:47.657Z,2.72
2022-10-11T17:20:15.330Z,2.22
2022-10-11T17:22:42.930Z,2.28
2022-10-11T17:25:12.028Z,2.10
2022-10-11T17:27:39.564Z,2.50
2022-10-11T17:30:08.704Z,2.08
2022-10-11T17:32:36.256Z,1.77
2022-10-11T17:35:04.029Z,2.35
2022-10-11T17:37:31.552Z,2.08
2022-10-11T17:39:59.126Z,2.15
2022-10-11T17:42:28.157Z,2.22
2022-10-11T17:44:55.761Z,2.10
2022-10-11T17:47:23.269Z,2.88
2022-10-11T17:49:50.855Z,2.00
2022-10-11T17:52:18.407Z,2.08
2022-10-11T17:54:45.940Z,2.42
2022-10-11T17:57:13.391Z,2.38
2022-10-11T17:59:42.483Z,2.42
2022-10-11T18:02:10.209Z,2.17
2022-10-11T18:04:37.698Z,2.28
2022-10-11T18:07:05.302Z,2.25
2022-10-11T18:09:33.077Z,2.80
2022-10-11T18:12:00.681Z,3.22
2022-10-11T18:14:28.204Z,2.88
2022-10-11T18:16:57.366Z,2.58
2022-10-11T18:19:24.922Z,2.53
2022-10-11T18:21:52.558Z,2.90
2022-10-11T18:24:20.062Z,7.60
2022-10-11T18:26:47.588Z,8.88
2022-10-11T18:29:15.330Z,8.63
2022-10-11T18:31:42.972Z,8.23
2022-10-11T18:34:12.492Z,9.02
2022-10-11T18:36:40.092Z,8.15
2022-10-11T18:39:08.971Z,9.02
2022-10-11T18:41:37.900Z,12.05
2022-10-11T18:44:06.215Z,15.15
2022-10-11T18:46:33.781Z,14.15
2022-10-11T18:49:01.298Z,11.32
2022-10-11T18:51:31.413Z,17.98
2022-10-11T18:53:59.137Z,23.35
2022-10-11T18:56:27.174Z,22.55
2022-10-11T18:58:55.685Z,18.75
2022-10-11T19:01:24.732Z,15.90
2022-10-11T19:03:53.996Z,14.60
2022-10-11T19:06:23.207Z,10.50
2022-10-11T19:08:53.740Z,9.88
2022-10-11T19:11:21.581Z,8.25
2022-10-11T19:13:49.260Z,6.15
2022-10-11T19:16:17.351Z,6.65
2022-10-11T19:18:44.929Z,5.10
2022-10-11T19:21:12.949Z,5.43
2022-10-11T19:23:41.481Z,6.40
2022-10-11T19:26:13.389Z,4.32
2022-10-11T19:28:41.112Z,4.70
2022-10-11T19:31:10.158Z,4.07
2022-10-11T19:33:38.010Z,4.20
2022-10-11T19:36:06.465Z,4.15
2022-10-11T19:38:35.217Z,4.15
2022-10-11T19:41:02.858Z,4.70
2022-10-11T19:43:31.985Z,4.38
2022-10-11T19:46:02.242Z,3.63
2022-10-11T19:48:29.845Z,3.72
2022-10-11T19:51:03.991Z,4.40
2022-10-11T19:53:31.612Z,4.53
2022-10-11T19:56:01.072Z,3.78
2022-10-11T19:58:28.989Z,3.55
2022-10-11T20:01:02.183Z,3.60
2022-10-11T20:03:29.803Z,4.07
2022-10-11T20:06:02.344Z,4.65
2022-10-11T20:08:29.867Z,14.63
2022-10-11T20:10:57.769Z,22.13
2022-10-11T20:13:25.349Z,39.05
2022-10-11T20:15:57.257Z,37.03
2022-10-11T20:18:26.666Z,43.58
2022-10-11T20:20:54.604Z,37.45
2022-10-11T20:23:27.248Z,22.50
2022-10-11T20:25:59.526Z,24.17
2022-10-11T20:28:27.251Z,14.30
2022-10-11T20:30:54.756Z,11.13
2022-10-11T20:33:22.254Z,9.38
2022-10-11T20:36:00.915Z,8.82
2022-10-11T20:38:29.082Z,7.25
2022-10-11T20:40:56.655Z,6.07
2022-10-11T20:43:24.408Z,6.68
2022-10-11T20:46:10.114Z,6.50
2022-10-11T20:48:38.434Z,5.78
2022-10-11T20:51:07.511Z,7.57
2022-10-11T20:53:35.228Z,6.28
2022-10-11T20:56:02.861Z,5.15
2022-10-11T20:58:33.336Z,5.90
2022-10-11T21:01:07.648Z,5.47
2022-10-11T21:03:35.308Z,5.32
2022-10-11T21:06:02.872Z,5.53
2022-10-11T21:08:32.182Z,5.10
2022-10-11T21:10:59.818Z,5.38
2022-10-11T21:13:27.356Z,5.70
2022-10-11T21:15:55.033Z,6.47
2022-10-11T21:18:22.517Z,5.55
2022-10-11T21:20:50.117Z,4.53
2022-10-11T21:23:17.634Z,4.40
2022-10-11T21:25:46.595Z,3.97
2022-10-11T21:28:14.208Z,4.18
2022-10-11T21:30:41.806Z,4.53
2022-10-11T21:33:09.376Z,4.25
2022-10-11T21:35:39.042Z,3.40
2022-10-11T21:38:06.674Z,4.55
2022-10-11T21:40:38.272Z,3.80
2022-10-11T21:43:07.338Z,4.32
2022-10-11T21:45:37.533Z,4.50
2022-10-11T21:48:05.415Z,3.15
2022-10-11T21:50:33.087Z,3.20
2022-10-11T21:53:00.626Z,4.07
2022-10-11T21:55:28.228Z,3.78
2022-10-11T21:57:55.757Z,3.13
2022-10-11T22:00:24.839Z,3.38
2022-10-11T22:02:52.504Z,3.35
2022-10-11T22:05:20.017Z,3.22
2022-10-11T22:07:47.525Z,4.15
2022-10-11T22:10:15.052Z,3.60
2022-10-11T22:12:42.545Z,3.30
2022-10-11T22:15:10.748Z,3.55
2022-10-11T22:17:39.829Z,3.40
2022-10-11T22:20:08.063Z,3.10
2022-10-11T22:22:35.833Z,3.45
2022-10-11T22:25:03.840Z,2.88
2022-10-11T22:27:31.347Z,2.58
2022-10-11T22:29:58.900Z,3.60
2022-10-11T22:32:26.470Z,3.15
2022-10-11T22:34:55.519Z,3.38
2022-10-11T22:37:23.192Z,3.28
2022-10-11T22:39:50.753Z,2.90
2022-10-11T22:42:18.314Z,3.03
2022-10-11T22:44:46.253Z,3.75
2022-10-11T22:47:13.761Z,2.92
2022-10-11T22:49:41.339Z,3.13
2022-10-11T22:52:10.302Z,2.97
2022-10-11T22:54:37.830Z,2.58
2022-10-11T22:57:05.288Z,3.17
2022-10-11T22:59:32.822Z,2.75
2022-10-11T23:02:00.515Z,2.83
2022-10-11T23:04:27.999Z,2.90
2022-10-11T23:06:55.542Z,2.90
2022-10-11T23:09:24.662Z,3.05
2022-10-11T23:11:52.756Z,2.33
2022-10-11T23:14:20.295Z,2.58
2022-10-11T23:16:47.838Z,2.17
2022-10-11T23:19:15.328Z,3.45
2022-10-11T23:21:42.908Z,2.85
2022-10-11T23:24:11.238Z,2.50
2022-10-11T23:26:40.261Z,2.75
2022-10-11T23:29:07.881Z,2.42
2022-10-11T23:31:35.455Z,2.65
2022-10-11T23:34:02.899Z,2.30
2022-10-11T23:36:30.474Z,2.28
2022-10-11T23:38:58.510Z,2.08
2022-10-11T23:41:27.124Z,2.17
2022-10-11T23:43:56.102Z,2.45
2022-10-11T23:46:23.711Z,1.90
2022-10-11T23:48:51.220Z,1.80
2022-10-11T23:51:18.723Z,2.10
2022-10-11T23:53:46.241Z,1.55
2022-10-11T23:56:13.788Z,2.05
2022-10-11T23:58:41.358Z,2.10
